Oasis of the Seas — C6XS7 — position and weather

sailwx.info

Track history (hours):
 
Tides and Currents Weather Stations Pressure Air Temp Water Temp Dewpoint Dewpoint Depression Visibility Wind Speed Wind Dir Waves Ship Positions

Oasis of the Seas

Last reported at 2020-Jul-09 19:59 UTC. Time now 2020-Jul-09 20:43 UTC.
Position N 25°46' W 080°09'.

Length 360 m; draft 9.2 m.

Type: Passenger vessel. MMSI: 311020600.

Date/timePositionNaut miles runAvg speedWind from/ knotsBaromVisibWave heightAir tempDewpointWater temp
2020-Jul-09 19:59N 25°46' W 080°09'0 0.0
2020-Jul-09 15:59N 25°46' W 080°09'0 0.0
2020-Jul-09 14:59N 25°46' W 080°09'0 0.0
2020-Jul-09 13:59N 25°46' W 080°09'0 0.0
2020-Jul-09 12:29N 25°46' W 080°09'0 0.0
2020-Jul-09 11:59N 25°46' W 080°09'0 0.0
2020-Jul-09 11:29N 25°46' W 080°09'0 0.0
2020-Jul-09 10:29N 25°46' W 080°09'0 0.0
2020-Jul-09 08:59N 25°46' W 080°09'0 0.0
2020-Jul-09 08:29N 25°46' W 080°09'0 0.0
2020-Jul-09 06:59N 25°46' W 080°09'0 0.0
2020-Jul-09 05:59N 25°46' W 080°09'0 0.0
2020-Jul-09 02:59N 25°46' W 080°09'0 0.0
2020-Jul-08 21:59N 25°46' W 080°09'0 0.0
2020-Jul-08 20:29N 25°46' W 080°09'0 0.0
2020-Jul-08 17:29N 25°46' W 080°09'0 0.0
2020-Jul-08 16:59N 25°46' W 080°09'0 0.0
2020-Jul-08 15:29N 25°46' W 080°09'0 0.0
2020-Jul-08 13:59N 25°46' W 080°09'0 0.0
2020-Jul-08 13:29N 25°46' W 080°09'0 0.0
2020-Jul-08 12:59N 25°46' W 080°09'0 0.0
2020-Jul-08 12:29N 25°46' W 080°09'0 0.0
2020-Jul-08 10:59N 25°46' W 080°09'0 0.0
2020-Jul-08 05:29N 25°46' W 080°09'0 0.0
2020-Jul-08 02:59N 25°46' W 080°09'0 0.0
2020-Jul-07 22:59N 25°46' W 080°09'0 0.0
2020-Jul-07 21:59N 25°46' W 080°09'0 0.0
2020-Jul-07 20:29N 25°46' W 080°09'0 0.0
2020-Jul-07 18:29N 25°46' W 080°09'0 0.0
2020-Jul-07 15:59N 25°46' W 080°09'0 0.0
2020-Jul-07 14:59N 25°46' W 080°09'0 0.0
2020-Jul-07 13:59N 25°46' W 080°09'0 0.0
2020-Jul-07 12:59N 25°46' W 080°09'0 0.1
2020-Jul-07 11:30N 25°46' W 080°09'5 9.8
2020-Jul-07 11:00N 25°46' W 080°04'106 3.5
2020-Jul-06 05:00N 25°42' W 078°06'0 0.0 270 / 161018.010.8 26.2 31.1
2020-Jul-05 05:00N 25°42' W 078°06'0 0.0 190 / 51015.010.8 29.0 31.8
2020-Jul-04 19:00N 25°42' W 078°06'0 0.0 230 / 61014.010.8 31.2 31.8
2020-Jul-04 07:00N 25°42' W 078°06'0 0.0 180 / 141013.010.8 29.1 31.9
2020-Jul-04 04:00N 25°42' W 078°06'0 0.0 190 / 101015.010.8 29.2 31.7
2020-Jul-03 19:00N 25°42' W 078°06'0 0.0 220 / 61015.010.8 31.5 31.5
2020-Jul-03 17:00N 25°42' W 078°06'28 2.8 200 / 91016.010.8 30.0 31.5
2020-Jul-03 07:00N 26°00' W 078°30'72 6.9 200 / 121014.010.8 29.1 31.2
2020-Jul-02 20:30N 25°49' W 079°50'8 7.6
2020-Jul-02 19:30N 25°50' W 079°58'1111.0
2020-Jul-02 18:30N 25°46' W 080°09'0 0.0
2020-Jul-02 15:58N 25°46' W 080°09'0 0.0
2020-Jul-02 14:28N 25°46' W 080°09'0 0.0
2020-Jul-02 11:28N 25°46' W 080°09'0 0.0
2020-Jul-02 10:58N 25°46' W 080°09'0 0.0
2020-Jul-02 10:28N 25°46' W 080°09'0 0.0
2020-Jul-02 09:28N 25°46' W 080°09'0 0.0
2020-Jul-02 08:58N 25°46' W 080°09'0 0.0
2020-Jul-02 06:28N 25°46' W 080°09'0 0.0
2020-Jul-02 03:58N 25°46' W 080°09'0 0.0
2020-Jul-02 03:28N 25°46' W 080°09'0 0.0
2020-Jul-02 02:28N 25°46' W 080°09'0 0.0
2020-Jul-02 01:25N 25°46' W 080°09'512.5
2020-Jul-02 01:00N 25°42' W 080°06'5 3.5 010 / 151017.0 27.0 32.0
2020-Jul-01 23:28N 25°46' W 080°09'0 0.0
2020-Jul-01 18:28N 25°46' W 080°09'0 0.0
2020-Jul-01 15:58N 25°46' W 080°09'0 0.0
2020-Jul-01 13:28N 25°46' W 080°09'39 4.9
2020-Jul-01 05:30N 26°03' W 079°30'12 7.9
2020-Jul-01 04:00N 26°13' W 079°24'77 3.7
2020-Jun-30 07:00N 25°42' W 078°06'0 0.0 180 / 111015.010.8 28.6 30.8
2020-Jun-30 04:00N 25°42' W 078°06'   150 / 51017.010.8 28.8 30.5
Track history (hours):
 
Tides and Currents Weather Stations Pressure Air Temp Water Temp Dewpoint Dewpoint Depression Visibility Wind Speed Wind Dir Waves Ship Positions

Oasis of the Seas

Last reported at 2020-Jul-09 19:59 UTC. Time now 2020-Jul-09 20:43 UTC.
Position N 25°46' W 080°09'.

Length 360 m; draft 9.2 m.

Type: Passenger vessel. MMSI: 311020600.

Date/timePositionNaut miles runAvg speedWind from/ knotsBaromVisibWave heightAir tempDewpointWater temp
2020-Jul-09 19:59N 25°46' W 080°09'0 0.0
2020-Jul-09 15:59N 25°46' W 080°09'0 0.0
2020-Jul-09 14:59N 25°46' W 080°09'0 0.0
2020-Jul-09 13:59N 25°46' W 080°09'0 0.0
2020-Jul-09 12:29N 25°46' W 080°09'0 0.0
2020-Jul-09 11:59N 25°46' W 080°09'0 0.0
2020-Jul-09 11:29N 25°46' W 080°09'0 0.0
2020-Jul-09 10:29N 25°46' W 080°09'0 0.0
2020-Jul-09 08:59N 25°46' W 080°09'0 0.0
2020-Jul-09 08:29N 25°46' W 080°09'0 0.0
2020-Jul-09 06:59N 25°46' W 080°09'0 0.0
2020-Jul-09 05:59N 25°46' W 080°09'0 0.0
2020-Jul-09 02:59N 25°46' W 080°09'0 0.0
2020-Jul-08 21:59N 25°46' W 080°09'0 0.0
2020-Jul-08 20:29N 25°46' W 080°09'0 0.0
2020-Jul-08 17:29N 25°46' W 080°09'0 0.0
2020-Jul-08 16:59N 25°46' W 080°09'0 0.0
2020-Jul-08 15:29N 25°46' W 080°09'0 0.0
2020-Jul-08 13:59N 25°46' W 080°09'0 0.0
2020-Jul-08 13:29N 25°46' W 080°09'0 0.0
2020-Jul-08 12:59N 25°46' W 080°09'0 0.0
2020-Jul-08 12:29N 25°46' W 080°09'0 0.0
2020-Jul-08 10:59N 25°46' W 080°09'0 0.0
2020-Jul-08 05:29N 25°46' W 080°09'0 0.0
2020-Jul-08 02:59N 25°46' W 080°09'0 0.0
2020-Jul-07 22:59N 25°46' W 080°09'0 0.0
2020-Jul-07 21:59N 25°46' W 080°09'0 0.0
2020-Jul-07 20:29N 25°46' W 080°09'0 0.0
2020-Jul-07 18:29N 25°46' W 080°09'0 0.0
2020-Jul-07 15:59N 25°46' W 080°09'0 0.0
2020-Jul-07 14:59N 25°46' W 080°09'0 0.0
2020-Jul-07 13:59N 25°46' W 080°09'0 0.0
2020-Jul-07 12:59N 25°46' W 080°09'0 0.1
2020-Jul-07 11:30N 25°46' W 080°09'5 9.8
2020-Jul-07 11:00N 25°46' W 080°04'106 3.5
2020-Jul-06 05:00N 25°42' W 078°06'0 0.0 270 / 161018.010.8 26.2 31.1
2020-Jul-05 05:00N 25°42' W 078°06'0 0.0 190 / 51015.010.8 29.0 31.8
2020-Jul-04 19:00N 25°42' W 078°06'0 0.0 230 / 61014.010.8 31.2 31.8
2020-Jul-04 07:00N 25°42' W 078°06'0 0.0 180 / 141013.010.8 29.1 31.9
2020-Jul-04 04:00N 25°42' W 078°06'0 0.0 190 / 101015.010.8 29.2 31.7
2020-Jul-03 19:00N 25°42' W 078°06'0 0.0 220 / 61015.010.8 31.5 31.5
2020-Jul-03 17:00N 25°42' W 078°06'28 2.8 200 / 91016.010.8 30.0 31.5
2020-Jul-03 07:00N 26°00' W 078°30'72 6.9 200 / 121014.010.8 29.1 31.2
2020-Jul-02 20:30N 25°49' W 079°50'8 7.6
2020-Jul-02 19:30N 25°50' W 079°58'1111.0
2020-Jul-02 18:30N 25°46' W 080°09'0 0.0
2020-Jul-02 15:58N 25°46' W 080°09'0 0.0
2020-Jul-02 14:28N 25°46' W 080°09'0 0.0
2020-Jul-02 11:28N 25°46' W 080°09'0 0.0
2020-Jul-02 10:58N 25°46' W 080°09'0 0.0
2020-Jul-02 10:28N 25°46' W 080°09'0 0.0
2020-Jul-02 09:28N 25°46' W 080°09'0 0.0
2020-Jul-02 08:58N 25°46' W 080°09'0 0.0
2020-Jul-02 06:28N 25°46' W 080°09'0 0.0
2020-Jul-02 03:58N 25°46' W 080°09'0 0.0
2020-Jul-02 03:28N 25°46' W 080°09'0 0.0
2020-Jul-02 02:28N 25°46' W 080°09'0 0.0
2020-Jul-02 01:25N 25°46' W 080°09'512.5
2020-Jul-02 01:00N 25°42' W 080°06'5 3.5 010 / 151017.0 27.0 32.0
2020-Jul-01 23:28N 25°46' W 080°09'0 0.0
2020-Jul-01 18:28N 25°46' W 080°09'0 0.0
2020-Jul-01 15:58N 25°46' W 080°09'0 0.0
2020-Jul-01 13:28N 25°46' W 080°09'39 4.9
2020-Jul-01 05:30N 26°03' W 079°30'12 7.9
2020-Jul-01 04:00N 26°13' W 079°24'77 3.7
2020-Jun-30 07:00N 25°42' W 078°06'0 0.0 180 / 111015.010.8 28.6 30.8
2020-Jun-30 04:00N 25°42' W 078°06'   150 / 51017.010.8 28.8 30.5

Dump ship's entire track history